createdAt,value
2022-12-23T00:01:00.326Z,2.35
2022-12-23T00:04:02.828Z,2.27
2022-12-23T00:07:05.269Z,2.21
2022-12-23T00:10:08.821Z,2.17
2022-12-23T00:13:30.981Z,2.08
2022-12-23T00:16:36.272Z,2.06
2022-12-23T00:19:38.693Z,2.03
2022-12-23T00:23:00.730Z,2.02
2022-12-23T00:26:04.272Z,1.97
2022-12-23T00:29:06.856Z,1.91
2022-12-23T00:32:09.674Z,1.89
2022-12-23T00:35:12.106Z,1.91
2022-12-23T00:38:15.189Z,1.93
2022-12-23T00:41:37.750Z,1.98
2022-12-23T00:44:40.091Z,1.97
2022-12-23T00:48:02.028Z,1.97
2022-12-23T00:51:04.701Z,1.91
2022-12-23T00:54:07.847Z,1.81
2022-12-23T00:57:10.262Z,1.80
2022-12-23T01:00:13.213Z,1.79
2022-12-23T01:03:34.612Z,1.75
2022-12-23T01:06:37.100Z,1.79
2022-12-23T01:09:39.560Z,1.83
2022-12-23T01:12:42.223Z,1.79
2022-12-23T01:15:44.795Z,1.76
2022-12-23T01:18:47.172Z,1.63
2022-12-23T01:21:49.597Z,1.55
2022-12-23T01:24:52.028Z,1.48
2022-12-23T01:27:54.415Z,1.47
2022-12-23T01:30:57.312Z,1.53
2022-12-23T01:33:59.701Z,1.53
2022-12-23T01:37:02.242Z,1.53
2022-12-23T01:40:05.448Z,1.53
2022-12-23T01:43:14.941Z,1.52
2022-12-23T01:46:18.088Z,1.36
2022-12-23T01:49:20.826Z,1.38
2022-12-23T01:52:23.469Z,1.38
2022-12-23T01:55:28.630Z,1.35
2022-12-23T01:58:35.208Z,1.25
2022-12-23T02:01:56.670Z,1.31
2022-12-23T02:04:59.930Z,1.15
2022-12-23T02:08:21.747Z,1.16
2022-12-23T02:11:42.900Z,1.17
2022-12-23T02:15:22.267Z,1.04
2022-12-23T02:19:08.076Z,0.98
2022-12-23T02:22:31.914Z,0.78
2022-12-23T02:25:46.240Z,0.67
2022-12-23T02:29:12.783Z,0.68
2022-12-23T02:32:36.790Z,0.64
2022-12-23T02:36:07.695Z,0.56
2022-12-23T02:39:19.389Z,0.47
2022-12-23T02:42:31.218Z,0.50
2022-12-23T02:45:41.932Z,0.53
2022-12-23T02:49:08.294Z,0.55
2022-12-23T02:52:16.200Z,0.54
2022-12-23T02:55:28.221Z,0.60
2022-12-23T02:58:37.571Z,0.65
2022-12-23T03:01:41.474Z,0.58
2022-12-23T03:04:44.134Z,0.46
2022-12-23T03:07:46.573Z,0.45
2022-12-23T03:11:05.038Z,0.48
2022-12-23T03:14:25.688Z,0.40
2022-12-23T03:17:27.984Z,0.42
2022-12-23T03:20:52.299Z,0.45
2022-12-23T03:24:06.583Z,0.37
2022-12-23T03:27:22.438Z,0.35
2022-12-23T03:30:25.903Z,0.33
2022-12-23T03:33:34.124Z,0.25
2022-12-23T03:36:45.854Z,0.24
2022-12-23T03:39:59.081Z,0.15
2022-12-23T03:43:09.832Z,0.16
2022-12-23T03:46:39.286Z,0.17
2022-12-23T03:49:53.050Z,0.21
2022-12-23T03:53:04.008Z,0.22
2022-12-23T03:56:12.598Z,0.17
2022-12-23T03:59:20.153Z,0.17
2022-12-23T04:02:28.334Z,0.16
2022-12-23T04:05:35.073Z,0.14
2022-12-23T04:08:38.911Z,0.15
2022-12-23T04:11:41.283Z,0.13
2022-12-23T04:14:48.798Z,0.16
2022-12-23T04:17:53.055Z,0.14
2022-12-23T04:20:59.376Z,0.14
2022-12-23T04:24:01.437Z,0.17
2022-12-23T04:27:03.504Z,0.22
2022-12-23T04:30:07.322Z,0.23
2022-12-23T04:33:12.061Z,0.25
2022-12-23T04:36:14.156Z,0.21
2022-12-23T04:39:16.152Z,0.23
2022-12-23T04:42:18.268Z,0.20
2022-12-23T04:45:20.366Z,0.18
2022-12-23T04:48:22.474Z,0.19
2022-12-23T04:51:24.653Z,0.18
2022-12-23T04:54:26.829Z,0.15
2022-12-23T04:57:28.928Z,0.09
2022-12-23T05:00:39.226Z,0.12
2022-12-23T05:03:42.296Z,0.11
2022-12-23T05:06:44.520Z,0.01
2022-12-23T05:09:46.779Z,-0.03
2022-12-23T05:12:48.757Z,0.01
2022-12-23T05:15:54.116Z,-0.02
2022-12-23T05:18:56.200Z,-0.01
2022-12-23T05:21:58.257Z,0.04
2022-12-23T05:25:00.334Z,0.09
2022-12-23T05:28:03.213Z,0.12
2022-12-23T05:31:08.225Z,0.17
2022-12-23T05:34:10.526Z,0.21
2022-12-23T05:37:12.733Z,0.27
2022-12-23T05:40:21.605Z,0.33
2022-12-23T05:43:25.824Z,0.40
2022-12-23T05:46:27.996Z,0.44
2022-12-23T05:49:32.596Z,0.47
2022-12-23T05:52:34.769Z,0.53
2022-12-23T05:55:37.076Z,0.58
2022-12-23T05:58:39.120Z,0.58
2022-12-23T06:01:41.429Z,0.58
2022-12-23T06:04:43.605Z,0.60
2022-12-23T06:07:45.699Z,0.64
2022-12-23T06:10:48.743Z,0.67
2022-12-23T06:13:52.660Z,0.72
2022-12-23T06:16:54.884Z,0.77
2022-12-23T06:19:56.969Z,0.76
2022-12-23T06:22:59.129Z,0.75
2022-12-23T06:26:02.319Z,0.72
2022-12-23T06:29:04.614Z,0.76
2022-12-23T06:32:07.369Z,0.85
2022-12-23T06:35:09.853Z,0.90
2022-12-23T06:38:12.497Z,0.97
2022-12-23T06:41:15.098Z,1.13
2022-12-23T06:44:17.555Z,1.24
2022-12-23T06:47:19.581Z,1.35
2022-12-23T06:50:22.477Z,1.35
2022-12-23T06:53:25.035Z,1.41
2022-12-23T06:56:27.639Z,1.44
2022-12-23T06:59:30.096Z,1.57
2022-12-23T07:02:32.321Z,1.60
2022-12-23T07:05:37.659Z,1.59
2022-12-23T07:08:40.141Z,1.69
2022-12-23T07:11:42.438Z,1.79
2022-12-23T07:14:44.469Z,1.93
2022-12-23T07:17:46.511Z,2.08
2022-12-23T07:20:48.940Z,2.09
2022-12-23T07:23:50.979Z,2.16
2022-12-23T07:26:53.043Z,2.22
2022-12-23T07:29:55.146Z,2.30
2022-12-23T07:32:57.190Z,2.35
2022-12-23T07:35:59.809Z,2.59
2022-12-23T07:39:01.949Z,2.86
2022-12-23T07:42:33.950Z,3.02
2022-12-23T07:45:27.793Z,3.09
2022-12-23T07:48:30.024Z,3.16
2022-12-23T07:51:32.571Z,3.22
2022-12-23T07:54:34.888Z,3.22
2022-12-23T07:57:38.007Z,3.31
2022-12-23T08:00:44.879Z,3.47
2022-12-23T08:03:47.895Z,3.55
2022-12-23T08:06:50.027Z,3.58
2022-12-23T08:09:52.101Z,3.54
2022-12-23T08:12:54.306Z,3.50
2022-12-23T08:16:01.125Z,3.59
2022-12-23T08:19:03.687Z,3.72
2022-12-23T08:22:07.895Z,3.99
2022-12-23T08:25:10.225Z,4.31
2022-12-23T08:28:12.312Z,4.49
2022-12-23T08:31:14.427Z,4.54
2022-12-23T08:34:17.175Z,4.57
2022-12-23T08:37:19.204Z,4.85
2022-12-23T08:40:23.251Z,5.56
2022-12-23T08:43:28.820Z,6.27
2022-12-23T08:46:35.335Z,6.85
2022-12-23T08:49:37.587Z,7.12
2022-12-23T08:52:39.663Z,7.07
2022-12-23T08:55:44.430Z,7.10
2022-12-23T08:58:48.921Z,7.06
2022-12-23T09:01:51.299Z,7.13
2022-12-23T09:04:53.737Z,7.27
2022-12-23T09:07:56.065Z,7.49
2022-12-23T09:10:58.314Z,7.71
2022-12-23T09:14:01.641Z,7.80
2022-12-23T09:17:03.773Z,7.81
2022-12-23T09:20:06.658Z,7.88
2022-12-23T09:23:09.170Z,8.08
2022-12-23T09:26:17.605Z,8.19
2022-12-23T09:29:19.679Z,8.34
2022-12-23T09:32:21.900Z,8.47
2022-12-23T09:35:24.257Z,8.57
2022-12-23T09:38:26.282Z,8.62
2022-12-23T09:42:01.590Z,8.82
2022-12-23T09:45:40.473Z,8.92
2022-12-23T09:49:02.734Z,8.81
2022-12-23T09:52:13.805Z,8.81
2022-12-23T09:55:17.468Z,8.86
2022-12-23T09:58:40.732Z,8.96
2022-12-23T10:02:20.130Z,9.12
2022-12-23T10:05:49.029Z,9.43
2022-12-23T10:08:55.298Z,9.69
2022-12-23T10:11:58.063Z,9.93
2022-12-23T10:15:02.758Z,10.17
2022-12-23T10:18:40.270Z,10.74
2022-12-23T10:21:55.459Z,11.02
2022-12-23T10:25:01.472Z,11.70
2022-12-23T10:28:04.791Z,11.91
2022-12-23T10:34:49.475Z,11.94
2022-12-23T10:37:51.540Z,11.88
2022-12-23T10:41:23.614Z,11.73
2022-12-23T10:45:03.113Z,11.65
2022-12-23T10:48:41.072Z,11.78
2022-12-23T10:52:15.589Z,11.69
2022-12-23T10:55:31.423Z,11.65
2022-12-23T10:58:42.531Z,11.84
2022-12-23T11:01:52.409Z,11.77
2022-12-23T11:04:54.764Z,11.84
2022-12-23T11:07:57.580Z,11.80
2022-12-23T11:11:01.929Z,11.83
2022-12-23T11:14:03.933Z,11.89
2022-12-23T11:17:19.168Z,11.88
2022-12-23T11:20:22.284Z,11.97
2022-12-23T11:23:24.409Z,11.99
2022-12-23T11:26:26.458Z,12.11
2022-12-23T11:29:43.990Z,12.04
2022-12-23T11:32:46.199Z,12.16
2022-12-23T11:35:48.416Z,12.47
2022-12-23T11:39:12.132Z,12.39
2022-12-23T11:42:24.573Z,12.36
2022-12-23T11:45:30.045Z,12.59
2022-12-23T11:48:32.285Z,12.72
2022-12-23T11:51:34.413Z,13.02
2022-12-23T11:54:37.558Z,12.95
2022-12-23T11:57:48.838Z,13.00
2022-12-23T12:00:58.828Z,12.87
2022-12-23T12:04:06.671Z,13.03
2022-12-23T12:07:14.547Z,13.05
2022-12-23T12:10:21.867Z,12.87
2022-12-23T12:13:36.649Z,13.11
2022-12-23T12:17:11.106Z,13.12
2022-12-23T12:20:30.477Z,13.20
2022-12-23T12:24:08.375Z,13.25
2022-12-23T12:27:14.009Z,13.29
2022-12-23T12:30:19.892Z,13.26
2022-12-23T12:33:50.827Z,13.35
2022-12-23T12:36:59.065Z,13.23
2022-12-23T12:40:13.892Z,13.25
2022-12-23T12:43:32.289Z,13.33
2022-12-23T12:46:57.647Z,13.37
2022-12-23T12:50:04.923Z,13.53
2022-12-23T12:53:19.374Z,13.44
2022-12-23T12:56:53.570Z,13.36
2022-12-23T13:00:05.349Z,13.28
2022-12-23T13:03:22.242Z,13.34
2022-12-23T13:06:35.728Z,13.21
2022-12-23T13:09:38.840Z,13.12
2022-12-23T13:12:40.973Z,13.13
2022-12-23T13:15:59.126Z,13.10
2022-12-23T13:19:06.113Z,13.06
2022-12-23T13:22:15.641Z,13.10
2022-12-23T13:25:20.327Z,13.21
2022-12-23T13:29:05.247Z,13.34
2022-12-23T13:32:25.126Z,13.42
2022-12-23T13:35:32.299Z,13.54
2022-12-23T13:38:43.045Z,13.55
2022-12-23T13:41:51.694Z,13.53
2022-12-23T13:44:56.675Z,13.53
2022-12-23T13:48:29.841Z,13.54
2022-12-23T13:51:45.405Z,13.48
2022-12-23T13:54:50.099Z,13.53
2022-12-23T13:57:52.124Z,13.52
2022-12-23T14:01:31.589Z,13.39
2022-12-23T14:04:56.916Z,13.19
2022-12-23T14:08:01.580Z,13.07
2022-12-23T14:11:16.052Z,12.94
2022-12-23T14:14:23.613Z,12.76
2022-12-23T14:17:39.089Z,12.64
2022-12-23T14:21:04.703Z,12.52
2022-12-23T14:24:35.551Z,12.47
2022-12-23T14:28:04.404Z,12.42
2022-12-23T14:31:31.224Z,12.43
2022-12-23T14:34:34.456Z,12.35
2022-12-23T14:37:36.619Z,12.34
2022-12-23T14:40:43.200Z,12.32
2022-12-23T14:43:45.495Z,12.31
2022-12-23T14:46:47.480Z,12.26
2022-12-23T14:49:49.820Z,12.20
2022-12-23T14:53:00.424Z,12.16
2022-12-23T14:56:26.949Z,12.10
2022-12-23T14:59:42.919Z,12.06
2022-12-23T15:02:45.070Z,11.96
2022-12-23T15:05:47.382Z,11.84
2022-12-23T15:08:53.066Z,11.78
2022-12-23T15:11:57.640Z,11.70
2022-12-23T15:15:22.901Z,11.53
2022-12-23T15:18:25.675Z,11.52
2022-12-23T15:21:33.660Z,11.39
2022-12-23T15:24:35.693Z,11.32
2022-12-23T15:27:37.788Z,11.21
2022-12-23T15:30:48.766Z,11.11
2022-12-23T15:34:02.715Z,10.87
2022-12-23T15:37:13.213Z,10.85
2022-12-23T15:40:35.114Z,10.85
2022-12-23T15:43:41.983Z,10.90
2022-12-23T15:46:44.577Z,10.91
2022-12-23T15:49:46.898Z,10.94
2022-12-23T15:52:50.761Z,10.93
2022-12-23T15:55:53.652Z,10.94
2022-12-23T15:58:56.882Z,10.87
2022-12-23T16:01:59.554Z,10.79
2022-12-23T16:05:04.143Z,10.79
2022-12-23T16:08:28.200Z,10.71
2022-12-23T16:12:00.113Z,10.67
2022-12-23T16:15:02.338Z,10.67
2022-12-23T16:18:32.868Z,10.68
2022-12-23T16:21:36.965Z,10.64
2022-12-23T16:24:48.558Z,10.65
2022-12-23T16:27:58.404Z,10.64
2022-12-23T16:31:01.458Z,10.60
2022-12-23T16:34:07.808Z,10.57
2022-12-23T16:37:09.887Z,10.51
2022-12-23T16:40:14.522Z,10.47
2022-12-23T16:43:17.637Z,10.46
2022-12-23T16:46:22.370Z,10.47
2022-12-23T16:49:34.333Z,10.45
2022-12-23T16:52:36.525Z,10.43
2022-12-23T16:55:42.879Z,10.39
2022-12-23T16:58:48.545Z,10.36
2022-12-23T17:01:51.178Z,10.30
2022-12-23T17:04:53.245Z,10.27
2022-12-23T17:07:55.380Z,10.25
2022-12-23T17:10:59.400Z,10.28
2022-12-23T17:14:05.610Z,10.33
2022-12-23T17:17:26.138Z,10.38
2022-12-23T17:20:28.502Z,10.34
2022-12-23T17:23:32.608Z,10.29
2022-12-23T17:26:34.787Z,10.34
2022-12-23T17:29:36.825Z,10.34
2022-12-23T17:32:39.286Z,10.43
2022-12-23T17:35:41.392Z,10.42
2022-12-23T17:38:43.454Z,10.41
2022-12-23T17:41:46.081Z,10.45
2022-12-23T17:44:49.147Z,10.42
2022-12-23T17:47:51.472Z,10.43
2022-12-23T17:50:55.501Z,10.43
2022-12-23T17:53:58.900Z,10.41
2022-12-23T17:57:00.961Z,10.41
2022-12-23T18:00:04.109Z,10.39
2022-12-23T18:03:07.161Z,10.38
2022-12-23T18:06:13.731Z,10.35
2022-12-23T18:09:16.906Z,10.35
2022-12-23T18:12:34.664Z,10.35
2022-12-23T18:15:39.575Z,10.35
2022-12-23T18:18:46.232Z,10.41
2022-12-23T18:21:49.966Z,10.37
2022-12-23T18:24:58.917Z,10.34
2022-12-23T18:28:01.547Z,10.35
2022-12-23T18:31:05.396Z,10.36
2022-12-23T18:34:07.647Z,10.34
2022-12-23T18:37:09.750Z,10.33
2022-12-23T18:40:12.348Z,10.34
2022-12-23T18:43:19.754Z,10.34
2022-12-23T18:46:22.145Z,10.30
2022-12-23T18:49:24.351Z,10.29
2022-12-23T18:52:26.655Z,10.25
2022-12-23T18:55:30.508Z,10.22
2022-12-23T18:58:32.637Z,10.21
2022-12-23T19:01:35.343Z,10.16
2022-12-23T19:04:37.790Z,10.17
2022-12-23T19:07:39.919Z,10.20
2022-12-23T19:10:46.488Z,10.18
2022-12-23T19:13:49.133Z,10.18
2022-12-23T19:16:52.633Z,10.13
2022-12-23T19:19:55.002Z,10.09
2022-12-23T19:22:57.368Z,10.07
2022-12-23T19:25:59.492Z,10.03
2022-12-23T19:29:01.618Z,10.01
2022-12-23T19:32:03.887Z,10.02
2022-12-23T19:35:06.526Z,10.10
2022-12-23T19:38:08.645Z,10.13
2022-12-23T19:41:13.756Z,10.17
2022-12-23T19:44:15.823Z,10.21
2022-12-23T19:47:17.978Z,10.18
2022-12-23T19:50:20.199Z,10.15
2022-12-23T19:53:22.304Z,10.11
2022-12-23T19:56:25.220Z,10.04
2022-12-23T19:59:27.436Z,10.04
2022-12-23T20:02:29.953Z,10.00
2022-12-23T20:05:32.173Z,9.96
2022-12-23T20:08:34.959Z,9.96
2022-12-23T20:11:48.706Z,9.97
2022-12-23T20:14:51.007Z,9.96
2022-12-23T20:17:54.282Z,9.95
2022-12-23T20:20:58.386Z,9.99
2022-12-23T20:24:00.871Z,9.99
2022-12-23T20:27:09.314Z,9.98
2022-12-23T20:30:13.664Z,9.94
2022-12-23T20:33:16.352Z,9.94
2022-12-23T20:36:21.806Z,9.94
2022-12-23T20:39:24.077Z,9.89
2022-12-23T20:42:28.153Z,9.87
2022-12-23T20:45:30.899Z,9.90
2022-12-23T20:48:34.695Z,9.88
2022-12-23T20:51:37.274Z,9.89
2022-12-23T20:54:39.599Z,9.89
2022-12-23T20:57:44.948Z,9.86
2022-12-23T21:00:49.885Z,9.78
2022-12-23T21:03:52.220Z,9.71
2022-12-23T21:06:54.352Z,9.66
2022-12-23T21:09:56.486Z,9.57
2022-12-23T21:12:58.663Z,9.51
2022-12-23T21:16:02.810Z,9.50
2022-12-23T21:19:07.513Z,9.56
2022-12-23T21:22:09.785Z,9.60
2022-12-23T21:25:11.859Z,9.57
2022-12-23T21:28:13.924Z,9.55
2022-12-23T21:31:19.128Z,9.52
2022-12-23T21:34:21.219Z,9.47
2022-12-23T21:37:23.249Z,9.46
2022-12-23T21:40:25.465Z,9.44
2022-12-23T21:43:27.976Z,9.40
2022-12-23T21:46:30.208Z,9.37
2022-12-23T21:49:32.351Z,9.34
2022-12-23T21:52:34.381Z,9.33
2022-12-23T21:55:36.394Z,9.35
2022-12-23T21:58:39.075Z,9.32
2022-12-23T22:01:42.629Z,9.34
2022-12-23T22:04:44.789Z,9.32
2022-12-23T22:07:46.813Z,9.39
2022-12-23T22:10:55.196Z,9.43
2022-12-23T22:13:58.934Z,9.54
2022-12-23T22:17:01.042Z,9.65
2022-12-23T22:20:03.980Z,9.77
2022-12-23T22:23:07.232Z,9.78
2022-12-23T22:26:17.447Z,9.85
2022-12-23T22:29:22.988Z,9.84
2022-12-23T22:32:25.301Z,9.88
2022-12-23T22:35:28.093Z,9.89
2022-12-23T22:38:30.262Z,9.93
2022-12-23T22:41:32.987Z,9.88
2022-12-23T22:44:35.094Z,9.86
2022-12-23T22:47:37.413Z,9.80
2022-12-23T22:50:41.123Z,9.77
2022-12-23T22:53:44.422Z,9.76
2022-12-23T22:56:46.562Z,9.69
2022-12-23T22:59:48.694Z,9.67
2022-12-23T23:02:50.715Z,9.69
2022-12-23T23:05:56.740Z,9.66
2022-12-23T23:08:59.472Z,9.66
2022-12-23T23:12:01.864Z,9.64
2022-12-23T23:15:04.311Z,9.66
2022-12-23T23:18:06.426Z,9.64
2022-12-23T23:21:11.552Z,9.63
2022-12-23T23:24:13.772Z,9.60
2022-12-23T23:27:16.174Z,9.59
2022-12-23T23:30:20.641Z,9.53
2022-12-23T23:33:22.857Z,9.54
2022-12-23T23:36:25.244Z,9.49
2022-12-23T23:39:27.646Z,9.54
2022-12-23T23:42:29.963Z,9.56
2022-12-23T23:45:32.192Z,9.64
2022-12-23T23:48:34.391Z,9.66
2022-12-23T23:51:36.453Z,9.74
2022-12-23T23:54:38.925Z,9.71
2022-12-23T23:57:41.053Z,9.73
